sensor_id;sensor_type;location;lat;lon;timestamp;P1;durP1;ratioP1;P2;durP2;ratioP2
78561;SDS011;68963;52.138;5.446;2024-01-30T00:02:24;22.58;;;11.13;;
78561;SDS011;68963;52.138;5.446;2024-01-30T00:04:50;23.20;;;12.20;;
78561;SDS011;68963;52.138;5.446;2024-01-30T00:07:17;24.65;;;11.85;;
78561;SDS011;68963;52.138;5.446;2024-01-30T00:09:46;24.80;;;10.95;;
78561;SDS011;68963;52.138;5.446;2024-01-30T00:12:13;22.20;;;11.75;;
78561;SDS011;68963;52.138;5.446;2024-01-30T00:14:43;23.05;;;11.95;;
78561;SDS011;68963;52.138;5.446;2024-01-30T00:17:10;22.15;;;11.27;;
78561;SDS011;68963;52.138;5.446;2024-01-30T00:19:36;23.98;;;12.15;;
78561;SDS011;68963;52.138;5.446;2024-01-30T00:22:03;22.80;;;11.40;;
78561;SDS011;68963;52.138;5.446;2024-01-30T00:24:30;22.80;;;12.10;;
78561;SDS011;68963;52.138;5.446;2024-01-30T00:26:57;21.73;;;11.27;;
78561;SDS011;68963;52.138;5.446;2024-01-30T00:29:24;23.17;;;11.40;;
78561;SDS011;68963;52.138;5.446;2024-01-30T00:31:51;22.08;;;11.48;;
78561;SDS011;68963;52.138;5.446;2024-01-30T00:34:18;24.08;;;11.60;;
78561;SDS011;68963;52.138;5.446;2024-01-30T00:36:45;21.85;;;10.98;;
78561;SDS011;68963;52.138;5.446;2024-01-30T00:39:12;22.02;;;11.10;;
78561;SDS011;68963;52.138;5.446;2024-01-30T00:41:38;21.38;;;11.65;;
78561;SDS011;68963;52.138;5.446;2024-01-30T00:44:05;21.83;;;11.27;;
78561;SDS011;68963;52.138;5.446;2024-01-30T00:46:32;21.40;;;11.25;;
78561;SDS011;68963;52.138;5.446;2024-01-30T00:48:58;22.23;;;11.70;;
78561;SDS011;68963;52.138;5.446;2024-01-30T00:51:25;22.67;;;11.77;;
78561;SDS011;68963;52.138;5.446;2024-01-30T00:53:51;23.17;;;11.70;;
78561;SDS011;68963;52.138;5.446;2024-01-30T00:56:18;24.00;;;12.05;;
78561;SDS011;68963;52.138;5.446;2024-01-30T00:58:45;22.58;;;11.38;;
78561;SDS011;68963;52.138;5.446;2024-01-30T01:01:12;20.80;;;10.88;;
78561;SDS011;68963;52.138;5.446;2024-01-30T01:03:39;21.95;;;10.77;;
78561;SDS011;68963;52.138;5.446;2024-01-30T01:06:07;21.80;;;11.20;;
78561;SDS011;68963;52.138;5.446;2024-01-30T01:08:34;21.35;;;10.63;;
78561;SDS011;68963;52.138;5.446;2024-01-30T01:11:00;23.05;;;11.70;;
78561;SDS011;68963;52.138;5.446;2024-01-30T01:13:27;20.80;;;11.00;;
78561;SDS011;68963;52.138;5.446;2024-01-30T01:15:53;20.55;;;10.30;;
78561;SDS011;68963;52.138;5.446;2024-01-30T01:18:20;20.80;;;10.57;;
78561;SDS011;68963;52.138;5.446;2024-01-30T01:20:46;22.27;;;10.98;;
78561;SDS011;68963;52.138;5.446;2024-01-30T01:23:13;21.38;;;10.45;;
78561;SDS011;68963;52.138;5.446;2024-01-30T01:25:40;22.75;;;10.50;;
78561;SDS011;68963;52.138;5.446;2024-01-30T01:28:06;22.13;;;11.20;;
78561;SDS011;68963;52.138;5.446;2024-01-30T01:30:33;20.48;;;10.20;;
78561;SDS011;68963;52.138;5.446;2024-01-30T01:32:59;19.25;;;10.15;;
78561;SDS011;68963;52.138;5.446;2024-01-30T01:35:28;20.60;;;10.27;;
78561;SDS011;68963;52.138;5.446;2024-01-30T01:37:55;19.85;;;9.60;;
78561;SDS011;68963;52.138;5.446;2024-01-30T01:40:25;21.38;;;10.68;;
78561;SDS011;68963;52.138;5.446;2024-01-30T01:42:53;23.50;;;11.35;;
78561;SDS011;68963;52.138;5.446;2024-01-30T01:45:21;22.02;;;10.75;;
78561;SDS011;68963;52.138;5.446;2024-01-30T01:47:50;20.67;;;9.88;;
78561;SDS011;68963;52.138;5.446;2024-01-30T01:50:18;19.25;;;9.68;;
78561;SDS011;68963;52.138;5.446;2024-01-30T01:55:16;19.52;;;9.00;;
78561;SDS011;68963;52.138;5.446;2024-01-30T01:57:48;18.65;;;9.27;;
78561;SDS011;68963;52.138;5.446;2024-01-30T02:00:14;18.15;;;8.88;;
78561;SDS011;68963;52.138;5.446;2024-01-30T02:02:42;22.10;;;9.52;;
78561;SDS011;68963;52.138;5.446;2024-01-30T02:05:10;18.08;;;9.45;;
78561;SDS011;68963;52.138;5.446;2024-01-30T02:07:37;18.85;;;9.07;;
78561;SDS011;68963;52.138;5.446;2024-01-30T02:10:04;20.98;;;9.80;;
78561;SDS011;68963;52.138;5.446;2024-01-30T02:12:31;21.52;;;9.43;;
78561;SDS011;68963;52.138;5.446;2024-01-30T02:14:57;18.88;;;9.18;;
78561;SDS011;68963;52.138;5.446;2024-01-30T02:17:24;18.75;;;9.77;;
78561;SDS011;68963;52.138;5.446;2024-01-30T02:19:51;21.27;;;9.40;;
78561;SDS011;68963;52.138;5.446;2024-01-30T02:22:18;21.00;;;9.43;;
78561;SDS011;68963;52.138;5.446;2024-01-30T02:24:46;18.48;;;9.05;;
78561;SDS011;68963;52.138;5.446;2024-01-30T02:27:13;18.70;;;9.25;;
78561;SDS011;68963;52.138;5.446;2024-01-30T02:29:39;17.30;;;9.07;;
78561;SDS011;68963;52.138;5.446;2024-01-30T02:32:06;18.42;;;8.90;;
78561;SDS011;68963;52.138;5.446;2024-01-30T02:34:33;20.23;;;9.57;;
78561;SDS011;68963;52.138;5.446;2024-01-30T02:37:00;17.75;;;8.85;;
78561;SDS011;68963;52.138;5.446;2024-01-30T02:39:27;20.00;;;9.43;;
78561;SDS011;68963;52.138;5.446;2024-01-30T02:41:54;20.02;;;8.93;;
78561;SDS011;68963;52.138;5.446;2024-01-30T02:44:21;18.13;;;8.75;;
78561;SDS011;68963;52.138;5.446;2024-01-30T02:46:47;18.75;;;9.20;;
78561;SDS011;68963;52.138;5.446;2024-01-30T02:49:14;17.55;;;8.88;;
78561;SDS011;68963;52.138;5.446;2024-01-30T02:51:40;19.92;;;9.23;;
78561;SDS011;68963;52.138;5.446;2024-01-30T02:54:07;19.17;;;9.43;;
78561;SDS011;68963;52.138;5.446;2024-01-30T02:56:33;17.00;;;8.70;;
78561;SDS011;68963;52.138;5.446;2024-01-30T02:59:00;19.60;;;8.85;;
78561;SDS011;68963;52.138;5.446;2024-01-30T03:01:27;19.17;;;9.57;;
78561;SDS011;68963;52.138;5.446;2024-01-30T03:03:53;19.48;;;9.82;;
78561;SDS011;68963;52.138;5.446;2024-01-30T03:06:20;21.70;;;10.32;;
78561;SDS011;68963;52.138;5.446;2024-01-30T03:08:48;25.27;;;10.57;;
78561;SDS011;68963;52.138;5.446;2024-01-30T03:11:14;21.13;;;9.57;;
78561;SDS011;68963;52.138;5.446;2024-01-30T03:13:41;23.00;;;10.23;;
78561;SDS011;68963;52.138;5.446;2024-01-30T03:16:08;21.75;;;10.52;;
78561;SDS011;68963;52.138;5.446;2024-01-30T03:18:35;22.95;;;10.43;;
78561;SDS011;68963;52.138;5.446;2024-01-30T03:21:01;23.23;;;11.70;;
78561;SDS011;68963;52.138;5.446;2024-01-30T03:23:28;22.85;;;10.80;;
78561;SDS011;68963;52.138;5.446;2024-01-30T03:25:54;24.80;;;11.82;;
78561;SDS011;68963;52.138;5.446;2024-01-30T03:28:21;24.23;;;11.57;;
78561;SDS011;68963;52.138;5.446;2024-01-30T03:30:47;27.70;;;11.82;;
78561;SDS011;68963;52.138;5.446;2024-01-30T03:33:14;26.25;;;11.73;;
78561;SDS011;68963;52.138;5.446;2024-01-30T03:35:41;24.75;;;11.73;;
78561;SDS011;68963;52.138;5.446;2024-01-30T03:38:07;24.67;;;11.40;;
78561;SDS011;68963;52.138;5.446;2024-01-30T03:40:34;24.83;;;11.70;;
78561;SDS011;68963;52.138;5.446;2024-01-30T03:43:00;26.08;;;11.73;;
78561;SDS011;68963;52.138;5.446;2024-01-30T03:45:27;25.65;;;11.85;;
78561;SDS011;68963;52.138;5.446;2024-01-30T03:47:54;26.45;;;11.93;;
78561;SDS011;68963;52.138;5.446;2024-01-30T03:50:21;25.48;;;11.15;;
78561;SDS011;68963;52.138;5.446;2024-01-30T03:52:47;22.63;;;11.10;;
78561;SDS011;68963;52.138;5.446;2024-01-30T03:55:14;24.90;;;11.93;;
78561;SDS011;68963;52.138;5.446;2024-01-30T03:57:41;21.85;;;11.05;;
78561;SDS011;68963;52.138;5.446;2024-01-30T04:00:07;25.73;;;12.05;;
78561;SDS011;68963;52.138;5.446;2024-01-30T04:02:34;26.98;;;11.95;;
78561;SDS011;68963;52.138;5.446;2024-01-30T04:05:01;22.08;;;10.43;;
78561;SDS011;68963;52.138;5.446;2024-01-30T04:07:28;21.95;;;10.43;;
78561;SDS011;68963;52.138;5.446;2024-01-30T04:09:55;23.38;;;11.02;;
78561;SDS011;68963;52.138;5.446;2024-01-30T04:12:22;24.00;;;11.32;;
78561;SDS011;68963;52.138;5.446;2024-01-30T04:14:48;19.33;;;9.85;;
78561;SDS011;68963;52.138;5.446;2024-01-30T04:17:15;19.98;;;10.07;;
78561;SDS011;68963;52.138;5.446;2024-01-30T04:19:41;21.55;;;10.30;;
78561;SDS011;68963;52.138;5.446;2024-01-30T04:22:08;18.58;;;9.68;;
78561;SDS011;68963;52.138;5.446;2024-01-30T04:24:35;19.23;;;9.43;;
78561;SDS011;68963;52.138;5.446;2024-01-30T04:27:01;19.33;;;9.57;;
78561;SDS011;68963;52.138;5.446;2024-01-30T04:29:28;17.15;;;8.93;;
78561;SDS011;68963;52.138;5.446;2024-01-30T04:31:55;17.85;;;8.90;;
78561;SDS011;68963;52.138;5.446;2024-01-30T04:34:21;16.35;;;8.00;;
78561;SDS011;68963;52.138;5.446;2024-01-30T04:36:48;17.25;;;8.27;;
78561;SDS011;68963;52.138;5.446;2024-01-30T04:39:14;15.60;;;8.40;;
78561;SDS011;68963;52.138;5.446;2024-01-30T04:41:41;17.13;;;8.43;;
78561;SDS011;68963;52.138;5.446;2024-01-30T04:44:07;16.85;;;8.20;;
78561;SDS011;68963;52.138;5.446;2024-01-30T04:46:34;17.63;;;8.48;;
78561;SDS011;68963;52.138;5.446;2024-01-30T04:49:00;16.52;;;8.43;;
78561;SDS011;68963;52.138;5.446;2024-01-30T04:51:27;17.05;;;8.13;;
78561;SDS011;68963;52.138;5.446;2024-01-30T04:53:54;15.32;;;8.38;;
78561;SDS011;68963;52.138;5.446;2024-01-30T04:56:20;16.73;;;8.48;;
78561;SDS011;68963;52.138;5.446;2024-01-30T04:58:47;16.25;;;8.13;;
78561;SDS011;68963;52.138;5.446;2024-01-30T05:01:16;16.52;;;7.70;;
78561;SDS011;68963;52.138;5.446;2024-01-30T05:03:43;16.63;;;7.90;;
78561;SDS011;68963;52.138;5.446;2024-01-30T05:06:10;16.08;;;7.95;;
78561;SDS011;68963;52.138;5.446;2024-01-30T05:08:37;14.25;;;7.28;;
78561;SDS011;68963;52.138;5.446;2024-01-30T05:11:05;16.08;;;8.23;;
78561;SDS011;68963;52.138;5.446;2024-01-30T05:13:31;15.48;;;8.18;;
78561;SDS011;68963;52.138;5.446;2024-01-30T05:15:58;16.55;;;7.55;;
78561;SDS011;68963;52.138;5.446;2024-01-30T05:18:25;16.80;;;8.07;;
78561;SDS011;68963;52.138;5.446;2024-01-30T05:20:52;14.27;;;8.20;;
78561;SDS011;68963;52.138;5.446;2024-01-30T05:23:19;15.85;;;7.78;;
78561;SDS011;68963;52.138;5.446;2024-01-30T05:25:45;15.85;;;8.00;;
78561;SDS011;68963;52.138;5.446;2024-01-30T05:28:12;15.05;;;7.80;;
78561;SDS011;68963;52.138;5.446;2024-01-30T05:30:38;15.57;;;7.70;;
78561;SDS011;68963;52.138;5.446;2024-01-30T05:33:05;15.98;;;8.25;;
78561;SDS011;68963;52.138;5.446;2024-01-30T05:35:32;16.08;;;8.30;;
78561;SDS011;68963;52.138;5.446;2024-01-30T05:37:58;15.38;;;8.40;;
78561;SDS011;68963;52.138;5.446;2024-01-30T05:40:25;16.38;;;8.23;;
78561;SDS011;68963;52.138;5.446;2024-01-30T05:42:51;17.70;;;8.10;;
78561;SDS011;68963;52.138;5.446;2024-01-30T05:45:18;16.83;;;7.97;;
78561;SDS011;68963;52.138;5.446;2024-01-30T05:47:45;17.23;;;8.25;;
78561;SDS011;68963;52.138;5.446;2024-01-30T05:50:11;17.08;;;8.25;;
78561;SDS011;68963;52.138;5.446;2024-01-30T05:52:38;16.45;;;7.75;;
78561;SDS011;68963;52.138;5.446;2024-01-30T05:55:05;16.35;;;8.25;;
78561;SDS011;68963;52.138;5.446;2024-01-30T05:57:32;15.90;;;8.02;;
78561;SDS011;68963;52.138;5.446;2024-01-30T05:59:58;16.98;;;8.27;;
78561;SDS011;68963;52.138;5.446;2024-01-30T06:02:25;16.55;;;7.97;;
78561;SDS011;68963;52.138;5.446;2024-01-30T06:04:51;14.88;;;7.35;;
78561;SDS011;68963;52.138;5.446;2024-01-30T06:07:18;15.63;;;7.90;;
78561;SDS011;68963;52.138;5.446;2024-01-30T06:09:45;16.42;;;7.90;;
78561;SDS011;68963;52.138;5.446;2024-01-30T06:12:13;16.75;;;7.97;;
78561;SDS011;68963;52.138;5.446;2024-01-30T06:14:39;15.55;;;7.95;;
78561;SDS011;68963;52.138;5.446;2024-01-30T06:17:12;15.95;;;8.30;;
78561;SDS011;68963;52.138;5.446;2024-01-30T06:19:40;15.95;;;8.43;;
78561;SDS011;68963;52.138;5.446;2024-01-30T06:22:06;18.88;;;8.20;;
78561;SDS011;68963;52.138;5.446;2024-01-30T06:24:33;16.00;;;8.35;;
78561;SDS011;68963;52.138;5.446;2024-01-30T06:27:01;16.33;;;8.00;;
78561;SDS011;68963;52.138;5.446;2024-01-30T06:29:27;17.20;;;7.88;;
78561;SDS011;68963;52.138;5.446;2024-01-30T06:31:55;16.00;;;8.18;;
78561;SDS011;68963;52.138;5.446;2024-01-30T06:34:22;17.02;;;8.10;;
78561;SDS011;68963;52.138;5.446;2024-01-30T06:36:48;14.60;;;8.02;;
78561;SDS011;68963;52.138;5.446;2024-01-30T06:39:15;16.38;;;7.75;;
78561;SDS011;68963;52.138;5.446;2024-01-30T06:41:42;15.50;;;7.90;;
78561;SDS011;68963;52.138;5.446;2024-01-30T06:44:08;14.70;;;7.72;;
78561;SDS011;68963;52.138;5.446;2024-01-30T06:46:35;16.85;;;8.45;;
78561;SDS011;68963;52.138;5.446;2024-01-30T06:49:02;15.82;;;8.52;;
78561;SDS011;68963;52.138;5.446;2024-01-30T06:51:29;15.52;;;8.30;;
78561;SDS011;68963;52.138;5.446;2024-01-30T06:53:55;16.35;;;8.40;;
78561;SDS011;68963;52.138;5.446;2024-01-30T06:56:22;17.63;;;8.07;;
78561;SDS011;68963;52.138;5.446;2024-01-30T06:58:52;15.55;;;7.95;;
78561;SDS011;68963;52.138;5.446;2024-01-30T07:01:18;16.17;;;7.78;;
78561;SDS011;68963;52.138;5.446;2024-01-30T07:03:45;15.27;;;7.65;;
78561;SDS011;68963;52.138;5.446;2024-01-30T07:06:12;16.90;;;8.25;;
78561;SDS011;68963;52.138;5.446;2024-01-30T07:08:39;15.68;;;8.32;;
78561;SDS011;68963;52.138;5.446;2024-01-30T07:11:06;16.20;;;8.20;;
78561;SDS011;68963;52.138;5.446;2024-01-30T07:13:34;15.95;;;7.55;;
78561;SDS011;68963;52.138;5.446;2024-01-30T07:16:01;17.92;;;8.10;;
78561;SDS011;68963;52.138;5.446;2024-01-30T07:18:28;16.80;;;8.13;;
78561;SDS011;68963;52.138;5.446;2024-01-30T07:20:55;15.65;;;8.73;;
78561;SDS011;68963;52.138;5.446;2024-01-30T07:23:21;16.88;;;8.05;;
78561;SDS011;68963;52.138;5.446;2024-01-30T07:25:49;16.77;;;8.02;;
78561;SDS011;68963;52.138;5.446;2024-01-30T07:28:16;15.93;;;7.53;;
78561;SDS011;68963;52.138;5.446;2024-01-30T07:30:43;15.48;;;7.80;;
78561;SDS011;68963;52.138;5.446;2024-01-30T07:33:10;14.68;;;7.78;;
78561;SDS011;68963;52.138;5.446;2024-01-30T07:35:37;17.52;;;8.25;;
78561;SDS011;68963;52.138;5.446;2024-01-30T07:38:04;15.10;;;7.80;;
78561;SDS011;68963;52.138;5.446;2024-01-30T07:40:31;14.60;;;7.43;;
78561;SDS011;68963;52.138;5.446;2024-01-30T07:45:27;18.35;;;7.72;;
78561;SDS011;68963;52.138;5.446;2024-01-30T07:47:58;17.08;;;7.90;;
78561;SDS011;68963;52.138;5.446;2024-01-30T07:50:26;15.80;;;7.60;;
78561;SDS011;68963;52.138;5.446;2024-01-30T07:52:55;17.10;;;8.05;;
78561;SDS011;68963;52.138;5.446;2024-01-30T07:55:23;15.75;;;7.82;;
78561;SDS011;68963;52.138;5.446;2024-01-30T07:57:55;17.23;;;7.75;;
78561;SDS011;68963;52.138;5.446;2024-01-30T08:00:22;16.23;;;7.68;;
78561;SDS011;68963;52.138;5.446;2024-01-30T08:02:55;15.95;;;8.00;;
78561;SDS011;68963;52.138;5.446;2024-01-30T08:05:22;15.05;;;7.72;;
78561;SDS011;68963;52.138;5.446;2024-01-30T08:07:50;17.25;;;8.13;;
78561;SDS011;68963;52.138;5.446;2024-01-30T08:10:17;15.15;;;7.88;;
78561;SDS011;68963;52.138;5.446;2024-01-30T08:12:46;15.45;;;7.82;;
78561;SDS011;68963;52.138;5.446;2024-01-30T08:15:13;15.77;;;8.00;;
78561;SDS011;68963;52.138;5.446;2024-01-30T08:17:40;15.60;;;7.75;;
78561;SDS011;68963;52.138;5.446;2024-01-30T08:20:07;15.27;;;7.90;;
78561;SDS011;68963;52.138;5.446;2024-01-30T08:22:39;15.35;;;8.05;;
78561;SDS011;68963;52.138;5.446;2024-01-30T08:25:07;18.27;;;8.15;;
78561;SDS011;68963;52.138;5.446;2024-01-30T08:27:34;18.55;;;8.02;;
78561;SDS011;68963;52.138;5.446;2024-01-30T08:30:02;15.38;;;7.90;;
78561;SDS011;68963;52.138;5.446;2024-01-30T08:32:29;16.55;;;8.00;;
78561;SDS011;68963;52.138;5.446;2024-01-30T08:34:56;14.00;;;7.32;;
78561;SDS011;68963;52.138;5.446;2024-01-30T08:37:24;15.45;;;8.10;;
78561;SDS011;68963;52.138;5.446;2024-01-30T08:39:51;16.92;;;8.02;;
78561;SDS011;68963;52.138;5.446;2024-01-30T08:42:18;15.35;;;7.80;;
78561;SDS011;68963;52.138;5.446;2024-01-30T08:44:49;16.02;;;8.00;;
78561;SDS011;68963;52.138;5.446;2024-01-30T08:47:17;17.42;;;7.53;;
78561;SDS011;68963;52.138;5.446;2024-01-30T08:49:45;16.75;;;7.93;;
78561;SDS011;68963;52.138;5.446;2024-01-30T08:52:12;16.60;;;7.57;;
78561;SDS011;68963;52.138;5.446;2024-01-30T08:54:38;16.92;;;7.97;;
78561;SDS011;68963;52.138;5.446;2024-01-30T08:57:05;18.35;;;8.40;;
78561;SDS011;68963;52.138;5.446;2024-01-30T08:59:32;17.05;;;7.95;;
78561;SDS011;68963;52.138;5.446;2024-01-30T09:02:00;18.42;;;8.27;;
78561;SDS011;68963;52.138;5.446;2024-01-30T09:04:37;20.25;;;8.30;;
78561;SDS011;68963;52.138;5.446;2024-01-30T09:07:05;18.90;;;8.50;;
78561;SDS011;68963;52.138;5.446;2024-01-30T09:09:37;18.38;;;8.07;;
78561;SDS011;68963;52.138;5.446;2024-01-30T09:12:06;18.45;;;7.88;;
78561;SDS011;68963;52.138;5.446;2024-01-30T09:14:39;17.38;;;7.93;;
78561;SDS011;68963;52.138;5.446;2024-01-30T09:17:06;16.83;;;7.43;;
78561;SDS011;68963;52.138;5.446;2024-01-30T09:19:33;16.77;;;8.07;;
78561;SDS011;68963;52.138;5.446;2024-01-30T09:22:00;17.00;;;8.07;;
78561;SDS011;68963;52.138;5.446;2024-01-30T09:24:27;16.50;;;7.70;;
78561;SDS011;68963;52.138;5.446;2024-01-30T09:26:54;17.35;;;8.05;;
78561;SDS011;68963;52.138;5.446;2024-01-30T09:29:21;16.02;;;7.65;;
78561;SDS011;68963;52.138;5.446;2024-01-30T09:31:48;16.33;;;7.88;;
78561;SDS011;68963;52.138;5.446;2024-01-30T09:34:14;16.52;;;8.13;;
78561;SDS011;68963;52.138;5.446;2024-01-30T09:36:41;15.00;;;7.28;;
78561;SDS011;68963;52.138;5.446;2024-01-30T09:39:08;17.25;;;7.07;;
78561;SDS011;68963;52.138;5.446;2024-01-30T09:44:29;16.13;;;8.13;;
78561;SDS011;68963;52.138;5.446;2024-01-30T09:46:56;16.08;;;7.15;;
78561;SDS011;68963;52.138;5.446;2024-01-30T09:49:31;16.25;;;7.80;;
78561;SDS011;68963;52.138;5.446;2024-01-30T09:51:59;16.38;;;7.60;;
78561;SDS011;68963;52.138;5.446;2024-01-30T09:54:26;17.45;;;7.75;;
78561;SDS011;68963;52.138;5.446;2024-01-30T09:56:59;16.60;;;8.00;;
78561;SDS011;68963;52.138;5.446;2024-01-30T09:59:26;17.08;;;8.10;;
78561;SDS011;68963;52.138;5.446;2024-01-30T10:01:52;16.48;;;7.90;;
78561;SDS011;68963;52.138;5.446;2024-01-30T10:04:19;16.52;;;7.88;;
78561;SDS011;68963;52.138;5.446;2024-01-30T10:06:46;14.00;;;7.72;;
78561;SDS011;68963;52.138;5.446;2024-01-30T10:09:14;18.33;;;8.07;;
78561;SDS011;68963;52.138;5.446;2024-01-30T10:11:40;18.63;;;8.30;;
78561;SDS011;68963;52.138;5.446;2024-01-30T10:14:07;17.45;;;8.10;;
78561;SDS011;68963;52.138;5.446;2024-01-30T10:16:36;15.20;;;7.43;;
78561;SDS011;68963;52.138;5.446;2024-01-30T10:19:03;16.90;;;7.90;;
78561;SDS011;68963;52.138;5.446;2024-01-30T10:21:30;17.77;;;8.25;;
78561;SDS011;68963;52.138;5.446;2024-01-30T10:23:56;14.75;;;7.88;;
78561;SDS011;68963;52.138;5.446;2024-01-30T10:26:23;15.38;;;8.13;;
78561;SDS011;68963;52.138;5.446;2024-01-30T10:28:50;16.65;;;7.47;;
78561;SDS011;68963;52.138;5.446;2024-01-30T10:31:17;16.08;;;7.78;;
78561;SDS011;68963;52.138;5.446;2024-01-30T10:33:47;14.73;;;7.57;;
78561;SDS011;68963;52.138;5.446;2024-01-30T10:36:14;13.82;;;7.53;;
78561;SDS011;68963;52.138;5.446;2024-01-30T10:38:46;15.90;;;7.47;;
78561;SDS011;68963;52.138;5.446;2024-01-30T10:41:15;13.93;;;7.30;;
78561;SDS011;68963;52.138;5.446;2024-01-30T10:44:00;14.50;;;7.72;;
78561;SDS011;68963;52.138;5.446;2024-01-30T10:46:34;15.18;;;7.60;;
78561;SDS011;68963;52.138;5.446;2024-01-30T10:49:04;17.45;;;8.13;;
78561;SDS011;68963;52.138;5.446;2024-01-30T10:51:32;17.92;;;8.45;;
78561;SDS011;68963;52.138;5.446;2024-01-30T10:54:01;15.57;;;8.18;;
78561;SDS011;68963;52.138;5.446;2024-01-30T10:56:31;18.33;;;8.20;;
78561;SDS011;68963;52.138;5.446;2024-01-30T11:01:26;15.30;;;7.25;;
78561;SDS011;68963;52.138;5.446;2024-01-30T11:03:55;13.15;;;7.63;;
78561;SDS011;68963;52.138;5.446;2024-01-30T11:06:27;15.23;;;6.90;;
78561;SDS011;68963;52.138;5.446;2024-01-30T11:09:03;16.45;;;7.05;;
78561;SDS011;68963;52.138;5.446;2024-01-30T11:11:49;12.60;;;6.63;;
78561;SDS011;68963;52.138;5.446;2024-01-30T11:14:16;12.25;;;6.35;;
78561;SDS011;68963;52.138;5.446;2024-01-30T11:16:43;13.68;;;6.82;;
78561;SDS011;68963;52.138;5.446;2024-01-30T11:19:12;16.20;;;8.05;;
78561;SDS011;68963;52.138;5.446;2024-01-30T11:21:41;15.75;;;7.45;;
78561;SDS011;68963;52.138;5.446;2024-01-30T11:24:09;12.20;;;6.70;;
78561;SDS011;68963;52.138;5.446;2024-01-30T11:26:35;14.32;;;6.50;;
78561;SDS011;68963;52.138;5.446;2024-01-30T11:29:07;15.15;;;6.65;;
78561;SDS011;68963;52.138;5.446;2024-01-30T11:31:34;13.52;;;6.78;;
78561;SDS011;68963;52.138;5.446;2024-01-30T11:34:01;14.07;;;6.57;;
78561;SDS011;68963;52.138;5.446;2024-01-30T11:36:27;14.60;;;5.63;;
78561;SDS011;68963;52.138;5.446;2024-01-30T11:38:55;11.63;;;6.05;;
78561;SDS011;68963;52.138;5.446;2024-01-30T11:41:22;10.73;;;5.05;;
78561;SDS011;68963;52.138;5.446;2024-01-30T11:43:53;10.07;;;4.18;;
78561;SDS011;68963;52.138;5.446;2024-01-30T11:46:20;12.05;;;4.13;;
78561;SDS011;68963;52.138;5.446;2024-01-30T11:48:51;8.45;;;3.17;;
78561;SDS011;68963;52.138;5.446;2024-01-30T11:51:18;8.63;;;3.00;;
78561;SDS011;68963;52.138;5.446;2024-01-30T11:53:49;8.07;;;2.90;;
78561;SDS011;68963;52.138;5.446;2024-01-30T11:56:16;7.50;;;2.53;;
78561;SDS011;68963;52.138;5.446;2024-01-30T11:58:43;6.13;;;2.00;;
78561;SDS011;68963;52.138;5.446;2024-01-30T12:01:10;5.68;;;1.80;;
78561;SDS011;68963;52.138;5.446;2024-01-30T12:03:38;5.65;;;1.60;;
78561;SDS011;68963;52.138;5.446;2024-01-30T12:06:04;5.03;;;1.42;;
78561;SDS011;68963;52.138;5.446;2024-01-30T12:08:31;7.00;;;1.52;;
78561;SDS011;68963;52.138;5.446;2024-01-30T12:10:58;5.22;;;1.35;;
78561;SDS011;68963;52.138;5.446;2024-01-30T12:13:25;8.50;;;1.50;;
78561;SDS011;68963;52.138;5.446;2024-01-30T12:15:57;5.20;;;1.50;;
78561;SDS011;68963;52.138;5.446;2024-01-30T12:18:25;4.43;;;1.50;;
78561;SDS011;68963;52.138;5.446;2024-01-30T12:21:01;4.45;;;1.63;;
78561;SDS011;68963;52.138;5.446;2024-01-30T12:23:28;6.75;;;1.75;;
78561;SDS011;68963;52.138;5.446;2024-01-30T12:25:55;6.03;;;1.70;;
78561;SDS011;68963;52.138;5.446;2024-01-30T12:28:24;5.17;;;1.80;;
78561;SDS011;68963;52.138;5.446;2024-01-30T12:30:55;6.72;;;2.33;;
78561;SDS011;68963;52.138;5.446;2024-01-30T12:33:26;7.20;;;2.85;;
78561;SDS011;68963;52.138;5.446;2024-01-30T12:35:56;7.82;;;3.10;;
78561;SDS011;68963;52.138;5.446;2024-01-30T12:38:29;10.95;;;3.60;;
78561;SDS011;68963;52.138;5.446;2024-01-30T12:40:56;8.25;;;3.10;;
78561;SDS011;68963;52.138;5.446;2024-01-30T12:43:23;7.68;;;2.90;;
78561;SDS011;68963;52.138;5.446;2024-01-30T12:46:03;10.48;;;3.20;;
78561;SDS011;68963;52.138;5.446;2024-01-30T12:48:30;9.13;;;3.13;;
78561;SDS011;68963;52.138;5.446;2024-01-30T12:50:57;6.45;;;2.90;;
78561;SDS011;68963;52.138;5.446;2024-01-30T12:53:24;8.18;;;2.60;;
78561;SDS011;68963;52.138;5.446;2024-01-30T12:55:51;8.00;;;2.60;;
78561;SDS011;68963;52.138;5.446;2024-01-30T12:58:18;9.10;;;2.80;;
78561;SDS011;68963;52.138;5.446;2024-01-30T13:00:44;7.80;;;2.53;;
78561;SDS011;68963;52.138;5.446;2024-01-30T13:03:11;9.73;;;2.70;;
78561;SDS011;68963;52.138;5.446;2024-01-30T13:05:38;8.23;;;2.90;;
78561;SDS011;68963;52.138;5.446;2024-01-30T13:08:05;6.60;;;2.55;;
78561;SDS011;68963;52.138;5.446;2024-01-30T13:10:32;8.73;;;2.60;;
78561;SDS011;68963;52.138;5.446;2024-01-30T13:12:58;8.25;;;2.40;;
78561;SDS011;68963;52.138;5.446;2024-01-30T13:15:25;9.80;;;2.50;;
78561;SDS011;68963;52.138;5.446;2024-01-30T13:17:52;7.07;;;2.10;;
78561;SDS011;68963;52.138;5.446;2024-01-30T13:20:21;5.47;;;1.90;;
78561;SDS011;68963;52.138;5.446;2024-01-30T13:22:48;7.78;;;1.77;;
78561;SDS011;68963;52.138;5.446;2024-01-30T13:25:16;5.93;;;1.52;;
78561;SDS011;68963;52.138;5.446;2024-01-30T13:27:43;4.90;;;1.52;;
78561;SDS011;68963;52.138;5.446;2024-01-30T13:30:10;5.43;;;1.45;;
78561;SDS011;68963;52.138;5.446;2024-01-30T13:32:36;4.63;;;1.40;;
78561;SDS011;68963;52.138;5.446;2024-01-30T13:35:04;4.25;;;1.30;;
78561;SDS011;68963;52.138;5.446;2024-01-30T13:37:31;4.85;;;1.20;;
78561;SDS011;68963;52.138;5.446;2024-01-30T13:39:57;4.70;;;1.20;;
78561;SDS011;68963;52.138;5.446;2024-01-30T13:42:24;6.68;;;1.20;;
78561;SDS011;68963;52.138;5.446;2024-01-30T13:44:51;3.60;;;1.02;;
78561;SDS011;68963;52.138;5.446;2024-01-30T13:47:18;3.83;;;1.17;;
78561;SDS011;68963;52.138;5.446;2024-01-30T13:49:47;5.72;;;1.33;;
78561;SDS011;68963;52.138;5.446;2024-01-30T13:52:14;6.90;;;1.60;;
78561;SDS011;68963;52.138;5.446;2024-01-30T13:54:41;5.32;;;1.27;;
78561;SDS011;68963;52.138;5.446;2024-01-30T13:57:09;4.38;;;1.42;;
78561;SDS011;68963;52.138;5.446;2024-01-30T13:59:37;4.45;;;1.10;;
78561;SDS011;68963;52.138;5.446;2024-01-30T14:02:05;4.10;;;1.15;;
78561;SDS011;68963;52.138;5.446;2024-01-30T14:04:33;4.13;;;1.10;;
78561;SDS011;68963;52.138;5.446;2024-01-30T14:07:00;5.88;;;1.60;;
78561;SDS011;68963;52.138;5.446;2024-01-30T14:09:30;3.88;;;1.30;;
78561;SDS011;68963;52.138;5.446;2024-01-30T14:11:58;6.18;;;1.45;;
78561;SDS011;68963;52.138;5.446;2024-01-30T14:14:25;5.35;;;1.30;;
78561;SDS011;68963;52.138;5.446;2024-01-30T14:16:52;7.07;;;1.60;;
78561;SDS011;68963;52.138;5.446;2024-01-30T14:19:19;6.43;;;1.33;;
78561;SDS011;68963;52.138;5.446;2024-01-30T14:21:45;8.38;;;1.35;;
78561;SDS011;68963;52.138;5.446;2024-01-30T14:24:12;5.68;;;1.27;;
78561;SDS011;68963;52.138;5.446;2024-01-30T14:26:39;5.20;;;1.30;;
78561;SDS011;68963;52.138;5.446;2024-01-30T14:29:05;5.28;;;1.35;;
78561;SDS011;68963;52.138;5.446;2024-01-30T14:31:32;4.25;;;1.10;;
78561;SDS011;68963;52.138;5.446;2024-01-30T14:33:59;6.65;;;1.20;;
78561;SDS011;68963;52.138;5.446;2024-01-30T14:36:26;8.02;;;1.30;;
78561;SDS011;68963;52.138;5.446;2024-01-30T14:38:54;5.18;;;1.30;;
78561;SDS011;68963;52.138;5.446;2024-01-30T14:41:21;6.95;;;1.13;;
78561;SDS011;68963;52.138;5.446;2024-01-30T14:43:49;4.07;;;1.10;;
78561;SDS011;68963;52.138;5.446;2024-01-30T14:46:16;5.53;;;1.33;;